createdAt,value
2017-04-04T00:00:07.148Z,12.30
2017-04-04T00:01:05.413Z,13.40
2017-04-04T00:02:03.717Z,12.67
2017-04-04T00:03:01.977Z,11.97
2017-04-04T00:04:00.204Z,12.17
2017-04-04T00:04:58.472Z,14.32
2017-04-04T00:05:56.776Z,12.70
2017-04-04T00:06:55.014Z,12.13
2017-04-04T00:07:54.029Z,13.72
2017-04-04T00:08:52.297Z,12.97
2017-04-04T00:09:50.620Z,12.52
2017-04-04T00:10:48.877Z,12.35
2017-04-04T00:11:47.157Z,13.48
2017-04-04T00:12:45.449Z,12.68
2017-04-04T00:13:43.780Z,13.52
2017-04-04T00:14:42.046Z,11.92
2017-04-04T00:15:40.329Z,13.33
2017-04-04T00:16:38.637Z,13.55
2017-04-04T00:17:36.907Z,13.70
2017-04-04T00:18:35.213Z,14.27
2017-04-04T00:19:33.486Z,16.28
2017-04-04T00:20:32.534Z,14.00
2017-04-04T00:21:30.821Z,13.77
2017-04-04T00:22:29.154Z,13.20
2017-04-04T00:23:27.472Z,13.48
2017-04-04T00:24:26.510Z,14.03
2017-04-04T00:25:24.897Z,14.70
2017-04-04T00:26:23.189Z,14.37
2017-04-04T00:27:21.470Z,12.88
2017-04-04T00:28:20.521Z,13.78
2017-04-04T00:29:18.849Z,15.28
2017-04-04T00:30:17.520Z,13.03
2017-04-04T00:31:15.804Z,13.62
2017-04-04T00:32:14.125Z,14.75
2017-04-04T00:33:13.137Z,15.48
2017-04-04T00:34:11.566Z,14.68
2017-04-04T00:35:09.884Z,13.35
2017-04-04T00:36:08.153Z,14.40
2017-04-04T00:37:06.436Z,15.05
2017-04-04T00:38:04.773Z,15.52
2017-04-04T00:39:03.132Z,15.53
2017-04-04T00:40:01.408Z,14.45
2017-04-04T00:40:59.701Z,14.87
2017-04-04T00:41:58.015Z,15.73
2017-04-04T00:42:57.053Z,14.88
2017-04-04T00:43:55.353Z,13.23
2017-04-04T00:44:53.680Z,15.28
2017-04-04T00:45:51.980Z,14.70
2017-04-04T00:46:50.245Z,14.68
2017-04-04T00:47:48.520Z,15.58
2017-04-04T00:48:46.873Z,15.67
2017-04-04T00:49:45.140Z,14.73
2017-04-04T00:50:43.473Z,15.73
2017-04-04T00:51:41.797Z,17.32
2017-04-04T00:52:40.121Z,15.07
2017-04-04T00:53:38.438Z,15.43
2017-04-04T00:54:36.712Z,14.17
2017-04-04T00:55:34.997Z,15.70
2017-04-04T00:56:33.305Z,16.28
2017-04-04T00:57:31.625Z,16.10
2017-04-04T00:58:30.633Z,14.25
2017-04-04T00:59:28.919Z,15.93
2017-04-04T01:00:27.292Z,17.60
2017-04-04T01:01:25.644Z,17.48
2017-04-04T01:02:24.721Z,15.52
2017-04-04T01:03:23.084Z,16.58
2017-04-04T01:04:21.460Z,16.05
2017-04-04T01:05:19.792Z,16.02
2017-04-04T01:06:18.861Z,15.90
2017-04-04T01:07:17.182Z,16.40
2017-04-04T01:08:15.537Z,16.02
2017-04-04T01:09:13.880Z,16.43
2017-04-04T01:10:12.882Z,16.67
2017-04-04T01:11:11.205Z,16.13
2017-04-04T01:12:10.236Z,17.30
2017-04-04T01:13:08.477Z,17.87
2017-04-04T01:14:06.759Z,15.97
2017-04-04T01:15:05.065Z,16.50
2017-04-04T01:16:04.095Z,15.77
2017-04-04T01:17:02.349Z,16.73
2017-04-04T01:18:00.593Z,16.17
2017-04-04T01:18:58.821Z,16.78
2017-04-04T01:19:57.801Z,16.22
2017-04-04T01:20:56.808Z,17.00
2017-04-04T01:21:55.118Z,15.87
2017-04-04T01:22:53.378Z,16.18
2017-04-04T01:23:51.614Z,16.03
2017-04-04T01:24:49.882Z,16.58
2017-04-04T01:25:48.121Z,16.80
2017-04-04T01:26:47.161Z,18.77
2017-04-04T01:27:45.381Z,18.35
2017-04-04T01:28:43.639Z,17.70
2017-04-04T01:29:41.864Z,17.87
2017-04-04T01:30:40.141Z,16.10
2017-04-04T01:31:38.469Z,17.60
2017-04-04T01:32:36.754Z,14.93
2017-04-04T01:33:34.981Z,18.47
2017-04-04T01:34:33.229Z,16.37
2017-04-04T01:35:32.195Z,17.05
2017-04-04T01:36:30.428Z,16.28
2017-04-04T01:37:28.664Z,17.47
2017-04-04T01:38:26.906Z,15.03
2017-04-04T01:39:25.877Z,16.62
2017-04-04T01:40:24.859Z,16.58
2017-04-04T01:41:23.841Z,16.57
2017-04-04T01:42:22.825Z,17.42
2017-04-04T01:43:21.798Z,18.42
2017-04-04T01:44:20.792Z,18.07
2017-04-04T01:45:19.804Z,17.57
2017-04-04T01:46:18.045Z,16.88
2017-04-04T01:47:16.992Z,17.18
2017-04-04T01:48:15.278Z,17.45
2017-04-04T01:49:13.525Z,16.02
2017-04-04T01:50:11.813Z,15.83
2017-04-04T01:51:10.048Z,16.03
2017-04-04T01:52:08.278Z,16.93
2017-04-04T01:53:06.549Z,15.73
2017-04-04T01:54:04.817Z,16.88
2017-04-04T01:55:03.073Z,18.22
2017-04-04T01:56:01.325Z,17.75
2017-04-04T01:56:59.592Z,17.85
2017-04-04T01:57:58.577Z,17.22
2017-04-04T01:58:56.814Z,17.37
2017-04-04T01:59:55.177Z,17.42
2017-04-04T02:00:53.448Z,16.73
2017-04-04T02:01:51.714Z,15.73
2017-04-04T02:02:50.681Z,18.73
2017-04-04T02:03:48.945Z,17.65
2017-04-04T02:04:47.227Z,16.70
2017-04-04T02:05:45.494Z,18.50
2017-04-04T02:06:43.797Z,16.28
2017-04-04T02:07:42.105Z,18.72
2017-04-04T02:08:40.424Z,18.43
2017-04-04T02:09:39.453Z,18.93
2017-04-04T02:10:37.748Z,18.20
2017-04-04T02:11:36.737Z,17.35
2017-04-04T02:12:35.038Z,17.38
2017-04-04T02:13:33.325Z,18.20
2017-04-04T02:14:31.618Z,18.02
2017-04-04T02:15:30.468Z,16.98
2017-04-04T02:16:28.719Z,18.35
2017-04-04T02:17:27.011Z,17.85
2017-04-04T02:18:25.279Z,17.40
2017-04-04T02:19:23.675Z,19.50
2017-04-04T02:20:22.005Z,21.10
2017-04-04T02:21:21.050Z,18.20
2017-04-04T02:22:19.334Z,19.17
2017-04-04T02:23:17.634Z,19.27
2017-04-04T02:24:16.673Z,20.50
2017-04-04T02:25:14.962Z,17.75
2017-04-04T02:26:13.209Z,17.55
2017-04-04T02:27:11.453Z,18.12
2017-04-04T02:28:10.484Z,18.78
2017-04-04T02:29:08.757Z,19.95
2017-04-04T02:30:07.065Z,19.15
2017-04-04T02:31:05.388Z,19.38
2017-04-04T02:32:03.656Z,19.33
2017-04-04T02:33:02.019Z,19.12
2017-04-04T02:34:00.325Z,19.22
2017-04-04T02:34:58.596Z,18.68
2017-04-04T02:35:56.901Z,20.25
2017-04-04T02:36:55.254Z,17.77
2017-04-04T02:37:53.563Z,19.30
2017-04-04T02:38:51.863Z,19.48
2017-04-04T02:39:50.125Z,17.85
2017-04-04T02:40:48.392Z,21.88
2017-04-04T02:41:46.653Z,20.12
2017-04-04T02:42:44.964Z,19.50
2017-04-04T02:43:43.249Z,20.08
2017-04-04T02:44:41.530Z,18.60
2017-04-04T02:45:39.813Z,20.15
2017-04-04T02:46:38.108Z,21.12
2017-04-04T02:47:36.365Z,19.90
2017-04-04T02:48:34.677Z,19.25
2017-04-04T02:49:32.992Z,19.07
2017-04-04T02:50:31.276Z,18.45
2017-04-04T02:51:29.540Z,18.55
2017-04-04T02:52:28.635Z,19.02
2017-04-04T02:53:26.925Z,19.48
2017-04-04T02:54:25.223Z,18.67
2017-04-04T02:55:23.508Z,20.00
2017-04-04T02:56:21.796Z,19.73
2017-04-04T02:57:20.813Z,18.45
2017-04-04T02:58:19.093Z,18.65
2017-04-04T02:59:17.382Z,19.55
2017-04-04T03:00:16.280Z,18.30
2017-04-04T03:01:14.618Z,18.93
2017-04-04T03:02:12.894Z,18.87
2017-04-04T03:03:11.150Z,20.85
2017-04-04T03:04:09.492Z,20.23
2017-04-04T03:05:07.781Z,17.05
2017-04-04T03:06:06.656Z,19.22
2017-04-04T03:07:04.968Z,20.55
2017-04-04T03:08:04.052Z,17.03
2017-04-04T03:09:03.397Z,20.38
2017-04-04T03:10:01.773Z,18.93
2017-04-04T03:11:00.397Z,17.72
2017-04-04T03:11:59.514Z,18.42
2017-04-04T03:12:57.893Z,17.30
2017-04-04T03:13:56.209Z,17.73
2017-04-04T03:14:54.544Z,22.27
2017-04-04T03:15:52.894Z,18.87
2017-04-04T03:16:51.204Z,19.28
2017-04-04T03:17:50.268Z,18.15
2017-04-04T03:18:48.587Z,21.43
2017-04-04T03:19:46.894Z,20.68
2017-04-04T03:20:45.310Z,21.02
2017-04-04T03:21:43.709Z,18.15
2017-04-04T03:22:42.478Z,21.52
2017-04-04T03:23:41.084Z,20.57
2017-04-04T03:24:39.476Z,20.48
2017-04-04T03:25:37.883Z,19.52
2017-04-04T03:26:36.285Z,20.03
2017-04-04T03:27:34.653Z,20.45
2017-04-04T03:28:33.074Z,20.80
2017-04-04T03:29:31.477Z,20.85
2017-04-04T03:30:30.101Z,21.28
2017-04-04T03:31:28.773Z,22.17
2017-04-04T03:32:27.124Z,21.45
2017-04-04T03:33:25.565Z,20.23
2017-04-04T03:34:23.861Z,20.30
2017-04-04T03:35:22.366Z,19.53
2017-04-04T03:36:20.806Z,19.92
2017-04-04T03:37:19.278Z,19.78
2017-04-04T03:38:17.768Z,20.35
2017-04-04T03:39:16.869Z,20.00
2017-04-04T03:40:15.330Z,19.80
2017-04-04T03:41:14.438Z,19.80
2017-04-04T03:42:12.820Z,19.55
2017-04-04T03:43:11.180Z,20.97
2017-04-04T03:44:10.304Z,21.25
2017-04-04T03:45:08.669Z,22.05
2017-04-04T03:46:07.042Z,21.48
2017-04-04T03:47:05.553Z,20.13
2017-04-04T03:48:03.952Z,20.33
2017-04-04T03:49:03.006Z,20.42
2017-04-04T03:50:02.210Z,19.98
2017-04-04T03:51:00.689Z,22.37
2017-04-04T03:51:59.097Z,23.25
2017-04-04T03:52:57.504Z,20.15
2017-04-04T03:53:55.884Z,21.22
2017-04-04T03:54:54.224Z,21.25
2017-04-04T03:55:52.644Z,22.25
2017-04-04T03:56:51.018Z,21.43
2017-04-04T03:57:49.411Z,22.32
2017-04-04T03:58:47.933Z,20.62
2017-04-04T03:59:47.114Z,20.82
2017-04-04T04:00:45.617Z,21.98
2017-04-04T04:01:44.125Z,20.72
2017-04-04T04:02:42.548Z,20.18
2017-04-04T04:03:40.970Z,21.90
2017-04-04T04:04:40.273Z,20.92
2017-04-04T04:05:38.769Z,19.77
2017-04-04T04:06:37.903Z,19.90
2017-04-04T04:07:36.317Z,20.60
2017-04-04T04:08:35.549Z,21.32
2017-04-04T04:09:34.012Z,18.70
2017-04-04T04:10:33.223Z,20.03
2017-04-04T04:11:31.909Z,22.50
2017-04-04T04:12:30.345Z,20.63
2017-04-04T04:13:28.794Z,20.03
2017-04-04T04:14:27.296Z,19.97
2017-04-04T04:15:25.722Z,22.25
2017-04-04T04:16:24.910Z,21.05
2017-04-04T04:17:23.326Z,20.62
2017-04-04T04:18:21.784Z,21.78
2017-04-04T04:19:20.312Z,20.90
2017-04-04T04:20:19.532Z,21.97
2017-04-04T04:21:17.937Z,21.27
2017-04-04T04:22:16.400Z,19.07
2017-04-04T04:23:14.801Z,20.73
2017-04-04T04:24:13.237Z,22.70
2017-04-04T04:25:11.819Z,22.02
2017-04-04T04:26:10.206Z,23.30
2017-04-04T04:27:08.648Z,19.68
2017-04-04T04:28:07.129Z,21.08
2017-04-04T04:29:05.507Z,20.28
2017-04-04T04:30:03.943Z,20.97
2017-04-04T04:31:02.529Z,21.55
2017-04-04T04:32:00.892Z,21.30
2017-04-04T04:32:59.276Z,20.47
2017-04-04T04:33:57.727Z,23.72
2017-04-04T04:34:56.121Z,19.70
2017-04-04T04:35:54.500Z,21.18
2017-04-04T04:36:52.849Z,19.93
2017-04-04T04:37:51.290Z,22.40
2017-04-04T04:38:50.445Z,22.88
2017-04-04T04:39:49.681Z,21.58
2017-04-04T04:40:48.150Z,21.18
2017-04-04T04:41:46.589Z,20.07
2017-04-04T04:42:44.917Z,22.07
2017-04-04T04:43:43.426Z,21.17
2017-04-04T04:44:42.549Z,21.23
2017-04-04T04:45:40.933Z,20.25
2017-04-04T04:46:39.443Z,21.10
2017-04-04T04:47:37.877Z,22.10
2017-04-04T04:48:36.290Z,20.97
2017-04-04T04:49:35.538Z,22.37
2017-04-04T04:50:33.969Z,22.95
2017-04-04T04:51:33.137Z,23.43
2017-04-04T04:52:31.657Z,21.10
2017-04-04T04:53:30.066Z,23.02
2017-04-04T04:54:28.485Z,24.03
2017-04-04T04:55:27.650Z,22.63
2017-04-04T04:56:26.170Z,24.30
2017-04-04T04:57:24.620Z,23.87
2017-04-04T04:58:23.096Z,26.18
2017-04-04T04:59:21.565Z,23.75
2017-04-04T05:00:19.963Z,23.70
2017-04-04T05:01:18.350Z,23.98
2017-04-04T05:02:17.520Z,23.98
2017-04-04T05:03:16.116Z,23.25
2017-04-04T05:04:15.241Z,25.03
2017-04-04T05:05:13.655Z,23.87
2017-04-04T05:06:12.127Z,22.38
2017-04-04T05:07:10.632Z,22.33
2017-04-04T05:08:09.744Z,22.72
2017-04-04T05:09:08.213Z,22.40
2017-04-04T05:10:06.585Z,23.45
2017-04-04T05:11:05.021Z,23.48
2017-04-04T05:12:03.491Z,23.45
2017-04-04T05:13:03.246Z,24.88
2017-04-04T05:14:01.674Z,23.67
2017-04-04T05:15:00.064Z,23.55
2017-04-04T05:15:58.489Z,21.37
2017-04-04T05:16:56.934Z,22.10
2017-04-04T05:17:55.512Z,23.70
2017-04-04T05:18:53.889Z,23.48
2017-04-04T05:19:52.264Z,22.88
2017-04-04T05:20:50.821Z,24.65
2017-04-04T05:21:49.247Z,23.27
2017-04-04T05:22:47.734Z,23.15
2017-04-04T05:23:46.186Z,23.38
2017-04-04T05:24:44.585Z,23.73
2017-04-04T05:25:43.070Z,21.65
2017-04-04T05:26:41.512Z,22.53
2017-04-04T05:27:39.931Z,22.58
2017-04-04T05:28:38.332Z,22.80
2017-04-04T05:29:36.717Z,23.82
2017-04-04T05:30:35.075Z,23.30
2017-04-04T05:31:33.438Z,21.48
2017-04-04T05:32:31.911Z,23.10
2017-04-04T05:33:30.252Z,23.77
2017-04-04T05:34:28.640Z,23.45
2017-04-04T05:35:27.102Z,23.08
2017-04-04T05:36:25.474Z,24.47
2017-04-04T05:37:24.564Z,24.55
2017-04-04T05:38:23.785Z,24.20
2017-04-04T05:39:22.194Z,23.57
2017-04-04T05:40:20.517Z,24.42
2017-04-04T05:41:19.665Z,22.50
2017-04-04T05:42:18.198Z,23.55
2017-04-04T05:43:16.560Z,23.50
2017-04-04T05:44:15.782Z,24.95
2017-04-04T05:45:14.184Z,24.90
2017-04-04T05:46:12.654Z,24.78
2017-04-04T05:47:11.753Z,23.43
2017-04-04T05:48:10.141Z,24.58
2017-04-04T05:49:08.493Z,24.47
2017-04-04T05:50:06.921Z,23.22
2017-04-04T05:51:05.264Z,25.35
2017-04-04T05:52:03.722Z,23.88
2017-04-04T05:53:02.133Z,25.50
2017-04-04T05:54:00.518Z,24.45
2017-04-04T05:54:58.885Z,25.37
2017-04-04T05:55:57.321Z,24.40
2017-04-04T05:56:55.654Z,23.52
2017-04-04T05:57:54.028Z,24.42
2017-04-04T05:58:52.445Z,24.70
2017-04-04T05:59:50.863Z,25.37
2017-04-04T06:00:49.274Z,24.48
2017-04-04T06:01:47.697Z,27.02
2017-04-04T06:02:46.025Z,23.07
2017-04-04T06:03:44.441Z,26.73
2017-04-04T06:04:42.809Z,27.55
2017-04-04T06:05:41.319Z,25.15
2017-04-04T06:06:39.754Z,25.07
2017-04-04T06:07:38.152Z,23.87
2017-04-04T06:08:36.552Z,23.77
2017-04-04T06:09:34.921Z,25.12
2017-04-04T06:10:33.445Z,25.28
2017-04-04T06:11:31.845Z,25.18
2017-04-04T06:12:30.978Z,25.30
2017-04-04T06:13:29.388Z,24.58
2017-04-04T06:14:27.822Z,25.40
2017-04-04T06:15:26.245Z,25.98
2017-04-04T06:16:24.641Z,25.57
2017-04-04T06:17:23.139Z,24.35
2017-04-04T06:18:21.708Z,26.03
2017-04-04T06:19:20.442Z,23.45
2017-04-04T06:20:18.990Z,25.95
2017-04-04T06:21:17.792Z,25.10
2017-04-04T06:22:16.985Z,22.82
2017-04-04T06:23:15.437Z,24.43
2017-04-04T06:24:14.052Z,24.77
2017-04-04T06:25:13.229Z,24.40
2017-04-04T06:26:12.426Z,25.70
2017-04-04T06:27:10.902Z,25.28
2017-04-04T06:28:09.297Z,24.73
2017-04-04T06:29:07.678Z,23.63
2017-04-04T06:30:06.055Z,23.77
2017-04-04T06:31:04.594Z,23.80
2017-04-04T06:32:03.057Z,25.13
2017-04-04T06:33:01.488Z,22.97
2017-04-04T06:34:00.593Z,26.42
2017-04-04T06:34:58.996Z,24.83
2017-04-04T06:35:57.404Z,23.98
2017-04-04T06:36:55.788Z,23.38
2017-04-04T06:37:54.219Z,23.55
2017-04-04T06:38:52.610Z,25.10
2017-04-04T06:39:51.041Z,23.85
2017-04-04T06:40:49.453Z,23.58
2017-04-04T06:41:47.810Z,22.53
2017-04-04T06:42:46.213Z,24.15
2017-04-04T06:43:45.386Z,23.52
2017-04-04T06:44:43.791Z,23.50
2017-04-04T06:45:42.909Z,26.85
2017-04-04T06:46:41.341Z,23.90
2017-04-04T06:47:39.715Z,23.70
2017-04-04T06:48:38.848Z,25.35
2017-04-04T06:49:37.313Z,25.23
2017-04-04T06:50:36.221Z,24.72
2017-04-04T06:51:34.687Z,24.22
2017-04-04T06:52:34.297Z,24.50
2017-04-04T06:53:33.454Z,22.80
2017-04-04T06:54:31.877Z,24.67
2017-04-04T06:55:30.228Z,24.18
2017-04-04T06:56:29.349Z,22.62
2017-04-04T06:57:27.876Z,25.73
2017-04-04T06:58:26.265Z,23.83
2017-04-04T06:59:24.677Z,25.57
2017-04-04T07:00:23.198Z,25.33
2017-04-04T07:01:21.589Z,26.32
2017-04-04T07:02:21.924Z,25.75
2017-04-04T07:03:20.300Z,23.43
2017-04-04T07:04:18.650Z,23.17
2017-04-04T07:05:17.069Z,25.05
2017-04-04T07:06:15.461Z,23.63
2017-04-04T07:07:16.220Z,22.38
2017-04-04T07:08:15.074Z,23.00
2017-04-04T07:09:13.459Z,24.07
2017-04-04T07:10:12.047Z,23.33
2017-04-04T07:11:10.428Z,23.70
2017-04-04T07:12:08.911Z,23.43
2017-04-04T07:13:07.265Z,24.27
2017-04-04T07:14:05.660Z,24.57
2017-04-04T07:15:03.989Z,25.93
2017-04-04T07:16:02.438Z,26.72
2017-04-04T07:17:00.861Z,24.98
2017-04-04T07:17:59.308Z,24.23
2017-04-04T07:18:57.669Z,23.70
2017-04-04T07:19:56.105Z,24.45
2017-04-04T07:20:55.299Z,24.38
2017-04-04T07:21:54.377Z,25.40
2017-04-04T07:22:52.843Z,25.17
2017-04-04T07:23:51.331Z,24.57
2017-04-04T07:24:49.686Z,26.18
2017-04-04T07:25:48.829Z,23.40
2017-04-04T07:26:47.256Z,24.42
2017-04-04T07:27:46.393Z,25.78
2017-04-04T07:28:44.745Z,24.33
2017-04-04T07:29:43.091Z,25.35
2017-04-04T07:30:41.455Z,26.22
2017-04-04T07:31:39.854Z,24.15
2017-04-04T07:32:38.209Z,24.18
2017-04-04T07:33:36.588Z,22.85
2017-04-04T07:34:35.042Z,24.18
2017-04-04T07:35:33.537Z,23.62
2017-04-04T07:36:31.977Z,25.13
2017-04-04T07:37:30.330Z,23.57
2017-04-04T07:38:29.511Z,23.67
2017-04-04T07:39:28.009Z,25.07
2017-04-04T07:40:26.433Z,24.27
2017-04-04T07:41:27.489Z,25.47
2017-04-04T07:42:27.161Z,25.72
2017-04-04T07:43:25.593Z,24.07
2017-04-04T07:44:23.992Z,25.18
2017-04-04T07:45:22.373Z,24.27
2017-04-04T07:46:20.824Z,24.63
2017-04-04T07:47:19.244Z,23.73
2017-04-04T07:48:18.313Z,25.62
2017-04-04T07:49:17.689Z,25.17
2017-04-04T07:50:16.102Z,26.35
2017-04-04T07:51:14.648Z,23.88
2017-04-04T07:52:13.870Z,27.77
2017-04-04T07:53:12.288Z,27.27
2017-04-04T07:54:10.688Z,22.63
2017-04-04T07:55:09.081Z,24.27
2017-04-04T07:56:07.409Z,23.33
2017-04-04T07:57:05.950Z,24.18
2017-04-04T07:58:04.363Z,23.50
2017-04-04T07:59:02.837Z,25.90
2017-04-04T08:00:02.003Z,24.58
2017-04-04T08:01:00.433Z,24.98
2017-04-04T08:01:58.889Z,25.83
2017-04-04T08:02:57.414Z,27.30
2017-04-04T08:03:55.784Z,24.38
2017-04-04T08:04:54.171Z,24.68
2017-04-04T08:05:53.297Z,24.37
2017-04-04T08:06:51.672Z,22.68
2017-04-04T08:07:50.193Z,23.60
2017-04-04T08:08:48.571Z,24.28
2017-04-04T08:09:46.957Z,24.08
2017-04-04T08:10:45.360Z,23.33
2017-04-04T08:11:43.742Z,24.53
2017-04-04T08:12:42.082Z,27.83
2017-04-04T08:13:40.440Z,25.18
2017-04-04T08:14:38.802Z,24.48
2017-04-04T08:15:37.861Z,25.00
2017-04-04T08:16:36.953Z,23.93
2017-04-04T08:17:36.104Z,25.93
2017-04-04T08:18:34.482Z,25.87
2017-04-04T08:19:32.803Z,24.55
2017-04-04T08:20:31.150Z,26.48
2017-04-04T08:21:30.285Z,24.12
2017-04-04T08:22:29.893Z,23.55
2017-04-04T08:23:28.225Z,23.37
2017-04-04T08:24:26.510Z,23.85
2017-04-04T08:25:24.817Z,23.38
2017-04-04T08:26:23.082Z,24.75
2017-04-04T08:27:21.356Z,24.42
2017-04-04T08:28:19.610Z,25.73
2017-04-04T08:29:17.900Z,23.53
2017-04-04T08:30:16.953Z,24.12
2017-04-04T08:31:17.001Z,26.15
2017-04-04T08:32:15.905Z,24.32
2017-04-04T08:33:14.177Z,24.77
2017-04-04T08:34:13.299Z,26.02
2017-04-04T08:35:11.727Z,25.57
2017-04-04T08:36:10.068Z,25.88
2017-04-04T08:37:08.373Z,26.33
2017-04-04T08:38:06.620Z,23.20
2017-04-04T08:39:05.403Z,25.48
2017-04-04T08:40:03.725Z,25.92
2017-04-04T08:41:02.765Z,27.02
2017-04-04T08:42:01.164Z,25.32
2017-04-04T08:42:59.431Z,25.93
2017-04-04T08:43:57.713Z,25.10
2017-04-04T08:44:55.975Z,24.85
2017-04-04T08:45:54.272Z,24.32
2017-04-04T08:46:53.030Z,25.20
2017-04-04T08:47:51.401Z,25.47
2017-04-04T08:48:49.723Z,26.55
2017-04-04T08:49:48.024Z,24.45
2017-04-04T08:50:47.096Z,26.10
2017-04-04T08:51:45.417Z,26.55
2017-04-04T08:52:43.726Z,23.43
2017-04-04T08:53:42.181Z,24.93
2017-04-04T08:54:40.578Z,24.23
2017-04-04T08:55:38.901Z,24.82
2017-04-04T08:56:37.245Z,24.23
2017-04-04T08:57:35.570Z,25.15
2017-04-04T08:58:33.941Z,22.65
2017-04-04T08:59:32.285Z,24.03
2017-04-04T09:00:31.369Z,24.20
2017-04-04T09:01:29.765Z,24.22
2017-04-04T09:02:28.198Z,25.85
2017-04-04T09:03:26.624Z,25.88
2017-04-04T09:04:25.074Z,25.77
2017-04-04T09:05:23.461Z,24.27
2017-04-04T09:06:21.805Z,23.30
2017-04-04T09:07:20.245Z,24.70
2017-04-04T09:08:18.639Z,26.17
2017-04-04T09:09:18.244Z,26.18
2017-04-04T09:10:16.610Z,23.80
2017-04-04T09:11:14.945Z,25.83
2017-04-04T09:12:13.320Z,22.62
2017-04-04T09:13:11.721Z,23.78
2017-04-04T09:14:10.141Z,22.62
2017-04-04T09:15:10.239Z,22.73
2017-04-04T09:16:09.741Z,22.43
2017-04-04T09:17:08.095Z,23.13
2017-04-04T09:18:06.533Z,24.87
2017-04-04T09:19:04.907Z,22.55
2017-04-04T09:20:03.256Z,22.87
2017-04-04T09:21:01.718Z,22.10
2017-04-04T09:22:00.077Z,23.12
2017-04-04T09:22:58.397Z,23.55
2017-04-04T09:23:57.495Z,25.58
2017-04-04T09:24:55.881Z,24.57
2017-04-04T09:25:54.269Z,25.35
2017-04-04T09:26:53.304Z,24.40
2017-04-04T09:27:51.660Z,22.35
2017-04-04T09:28:49.981Z,23.05
2017-04-04T09:29:48.441Z,23.65
2017-04-04T09:30:47.486Z,23.90
2017-04-04T09:33:57.232Z,21.83
2017-04-04T09:34:55.509Z,22.88
2017-04-04T09:35:54.555Z,23.60
2017-04-04T09:36:52.846Z,21.63
2017-04-04T09:37:51.953Z,22.62
2017-04-04T09:38:51.046Z,22.17
2017-04-04T09:39:50.121Z,23.07
2017-04-04T09:40:48.460Z,24.07
2017-04-04T09:41:46.876Z,22.75
2017-04-04T09:42:45.192Z,23.88
2017-04-04T09:43:43.561Z,22.77
2017-04-04T09:44:41.930Z,24.13
2017-04-04T09:45:40.236Z,23.97
2017-04-04T09:46:38.558Z,24.10
2017-04-04T09:47:36.934Z,24.47
2017-04-04T09:48:35.241Z,22.82
2017-04-04T09:49:34.348Z,24.13
2017-04-04T09:50:34.175Z,24.58
2017-04-04T09:51:33.597Z,22.67
2017-04-04T09:52:32.625Z,23.58
2017-04-04T09:53:30.924Z,23.17
2017-04-04T09:54:29.241Z,24.93
2017-04-04T09:55:28.308Z,25.15
2017-04-04T09:56:26.573Z,24.98
2017-04-04T09:57:25.697Z,23.45
2017-04-04T09:58:24.117Z,25.68
2017-04-04T09:59:22.401Z,24.43
2017-04-04T10:00:20.785Z,24.93
2017-04-04T10:01:19.941Z,23.12
2017-04-04T10:02:18.237Z,25.12
2017-04-04T10:03:17.250Z,24.10
2017-04-04T10:04:15.569Z,22.45
2017-04-04T10:05:14.605Z,23.88
2017-04-04T10:06:12.889Z,23.45
2017-04-04T10:07:11.320Z,24.80
2017-04-04T10:08:09.643Z,25.60
2017-04-04T10:09:21.739Z,25.62
2017-04-04T10:10:20.973Z,24.93
2017-04-04T10:11:20.047Z,26.35
2017-04-04T10:12:18.438Z,26.80
2017-04-04T10:13:16.749Z,24.37
2017-04-04T10:14:15.169Z,24.95
2017-04-04T10:15:14.269Z,26.28
2017-04-04T10:16:12.616Z,24.80
2017-04-04T10:17:10.983Z,24.63
2017-04-04T10:18:09.444Z,26.92
2017-04-04T10:19:07.781Z,25.73
2017-04-04T10:20:06.197Z,26.13
2017-04-04T10:21:04.533Z,25.97
2017-04-04T10:22:02.884Z,27.13
2017-04-04T10:23:01.244Z,26.12
2017-04-04T10:23:59.606Z,27.43
2017-04-04T10:24:58.696Z,25.23
2017-04-04T10:25:57.078Z,26.47
2017-04-04T10:26:55.509Z,25.23
2017-04-04T10:27:53.874Z,25.35
2017-04-04T10:28:52.201Z,27.83
2017-04-04T10:29:50.581Z,25.30
2017-04-04T10:30:48.981Z,26.58
2017-04-04T10:31:47.682Z,27.23
2017-04-04T10:32:46.011Z,27.90
2017-04-04T10:33:44.437Z,25.02
2017-04-04T10:34:42.820Z,26.73
2017-04-04T10:35:41.184Z,27.47
2017-04-04T10:36:39.601Z,26.60
2017-04-04T10:37:38.288Z,25.18
2017-04-04T10:38:36.629Z,26.60
2017-04-04T10:39:34.960Z,25.38
2017-04-04T10:40:33.293Z,24.37
2017-04-04T10:41:31.749Z,24.97
2017-04-04T10:42:30.053Z,25.38
2017-04-04T10:43:28.361Z,24.38
2017-04-04T10:44:26.663Z,24.50
2017-04-04T10:45:25.733Z,25.55
2017-04-04T10:46:24.129Z,25.45
2017-04-04T10:47:22.541Z,23.22
2017-04-04T10:48:21.654Z,24.25
2017-04-04T10:49:19.992Z,23.55
2017-04-04T10:50:19.106Z,22.63
2017-04-04T10:51:17.464Z,24.63
2017-04-04T10:52:15.832Z,23.98
2017-04-04T10:53:14.921Z,26.48
2017-04-04T10:54:13.297Z,25.42
2017-04-04T10:55:11.658Z,25.42
2017-04-04T10:56:10.013Z,24.45
2017-04-04T10:57:09.233Z,23.83
2017-04-04T10:58:07.605Z,21.25
2017-04-04T10:59:05.957Z,21.58
2017-04-04T11:00:04.319Z,22.95
2017-04-04T11:01:03.395Z,21.48
2017-04-04T11:02:02.492Z,22.22
2017-04-04T11:03:01.673Z,20.97
2017-04-04T11:03:59.980Z,21.33
2017-04-04T11:04:58.317Z,21.48
2017-04-04T11:05:56.661Z,21.22
2017-04-04T11:06:55.737Z,24.38
2017-04-04T11:07:54.049Z,20.25
2017-04-04T11:08:52.401Z,22.57
2017-04-04T11:09:50.729Z,21.93
2017-04-04T11:10:49.117Z,23.65
2017-04-04T11:11:48.199Z,23.80
2017-04-04T11:12:47.298Z,22.55
2017-04-04T11:13:45.678Z,20.92
2017-04-04T11:14:43.998Z,21.72
2017-04-04T11:15:42.272Z,20.45
2017-04-04T11:16:40.713Z,22.33
2017-04-04T11:17:38.997Z,21.23
2017-04-04T11:18:37.264Z,21.70
2017-04-04T11:19:35.548Z,23.10
2017-04-04T11:20:33.836Z,21.90
2017-04-04T11:21:32.849Z,22.82
2017-04-04T11:22:31.169Z,22.57
2017-04-04T11:23:29.445Z,21.45
2017-04-04T11:24:27.727Z,21.58
2017-04-04T11:25:26.008Z,19.88
2017-04-04T11:26:24.294Z,20.22
2017-04-04T11:27:22.586Z,19.65
2017-04-04T11:28:20.881Z,19.23
2017-04-04T11:29:19.924Z,18.37
2017-04-04T11:30:18.344Z,21.13
2017-04-04T11:31:17.358Z,19.10
2017-04-04T11:32:15.683Z,18.93
2017-04-04T11:33:13.972Z,18.50
2017-04-04T11:34:13.154Z,16.98
2017-04-04T11:35:12.173Z,19.60
2017-04-04T11:36:10.455Z,19.75
2017-04-04T11:37:08.757Z,18.75
2017-04-04T11:38:07.052Z,19.20
2017-04-04T11:39:05.355Z,15.13
2017-04-04T11:40:03.664Z,16.15
2017-04-04T11:41:02.714Z,15.60
2017-04-04T11:42:00.998Z,15.22
2017-04-04T11:42:59.254Z,14.98
2017-04-04T11:43:57.549Z,17.80
2017-04-04T11:44:56.597Z,17.12
2017-04-04T11:45:54.840Z,17.58
2017-04-04T11:46:53.092Z,17.90
2017-04-04T11:47:51.393Z,18.15
2017-04-04T11:48:49.662Z,16.20
2017-04-04T11:49:47.913Z,15.67
2017-04-04T11:50:46.189Z,14.75
2017-04-04T11:51:44.497Z,15.95
2017-04-04T11:52:42.753Z,17.12
2017-04-04T11:53:40.996Z,16.18
2017-04-04T11:54:39.340Z,17.08
2017-04-04T11:55:37.596Z,17.50
2017-04-04T11:56:35.881Z,15.87
2017-04-04T11:57:34.174Z,15.65
2017-04-04T11:58:32.453Z,15.85
2017-04-04T11:59:30.697Z,16.08
2017-04-04T12:00:28.958Z,16.78
2017-04-04T12:01:27.225Z,16.05
2017-04-04T12:02:25.509Z,17.60
2017-04-04T12:03:23.873Z,15.08
2017-04-04T12:04:22.228Z,17.20
2017-04-04T12:05:20.521Z,15.70
2017-04-04T12:06:18.805Z,15.42
2017-04-04T12:07:17.101Z,14.73
2017-04-04T12:08:15.373Z,14.15
2017-04-04T12:09:14.412Z,13.80
2017-04-04T12:10:13.442Z,14.63
2017-04-04T12:11:12.453Z,15.47
2017-04-04T12:12:10.749Z,15.23
2017-04-04T12:13:09.798Z,16.37
2017-04-04T12:14:08.065Z,15.88
2017-04-04T12:15:06.388Z,15.28
2017-04-04T12:16:04.661Z,14.83
2017-04-04T12:17:03.709Z,18.55
2017-04-04T12:18:01.962Z,16.60
2017-04-04T12:19:00.252Z,16.35
2017-04-04T12:19:58.550Z,17.10
2017-04-04T12:20:56.864Z,17.30
2017-04-04T12:21:55.114Z,15.92
2017-04-04T12:22:53.385Z,16.82
2017-04-04T12:23:51.660Z,16.18
2017-04-04T12:24:49.911Z,18.05
2017-04-04T12:25:48.177Z,17.28
2017-04-04T12:26:46.551Z,27.93
2017-04-04T12:27:44.808Z,20.80
2017-04-04T12:28:43.077Z,16.62
2017-04-04T12:29:41.461Z,15.95
2017-04-04T12:30:39.745Z,15.78
2017-04-04T12:31:37.993Z,15.05
2017-04-04T12:32:36.281Z,14.97
2017-04-04T12:33:35.305Z,15.70
2017-04-04T12:34:33.569Z,15.30
2017-04-04T12:35:31.842Z,15.28